QFA596 YSSY-YSCB
Flight info
| Callsign | QFA596 |
|---|---|
| Flight time | 0h 32m |
| Altitude | 20000 |
| Route | WOL H65 CB |
| Aircraft | B738/M-SDE2E3FGHIRWXY/LB1 |
Departure
| Time | 2026-05-06 07:58 |
|---|---|
| Airport | Sydney Kingsford Smith International Airport (YSSY) |
Arrival
| Time | 2026-05-06 08:31 |
|---|---|
| Airport | Canberra Airport (YSCB) |
| Time | Latitude | Longitude | Altitude | Speed | Heading |
|---|---|---|---|---|---|
| 2026-05-06 07:41 | -33.93151 | 151.17801 | 22 ft | 0 kts | 189° |
| 2026-05-06 07:50 | -33.93145 | 151.17801 | 22 ft | 1 kts | 190° |
| 2026-05-06 07:50 | -33.93140 | 151.17804 | 22 ft | 0 kts | 249° |
| 2026-05-06 07:50 | -33.93140 | 151.17818 | 22 ft | 2 kts | 274° |
| 2026-05-06 07:50 | -33.93138 | 151.17836 | 23 ft | 2 kts | 263° |
| 2026-05-06 07:51 | -33.93138 | 151.17841 | 23 ft | 0 kts | 265° |
| 2026-05-06 07:53 | -33.93103 | 151.17787 | 22 ft | 16 kts | 321° |
| 2026-05-06 07:53 | -33.93049 | 151.17731 | 22 ft | 7 kts | 302° |
| 2026-05-06 07:53 | -33.93028 | 151.17682 | 22 ft | 4 kts | 293° |
| 2026-05-06 07:54 | -33.93015 | 151.17644 | 22 ft | 4 kts | 283° |
| 2026-05-06 07:54 | -33.93006 | 151.17581 | 22 ft | 14 kts | 283° |
| 2026-05-06 07:54 | -33.92988 | 151.17477 | 22 ft | 11 kts | 281° |
| 2026-05-06 07:54 | -33.92968 | 151.17360 | 22 ft | 15 kts | 281° |
| 2026-05-06 07:55 | -33.92961 | 151.17319 | 22 ft | 0 kts | 280° |
| 2026-05-06 07:56 | -33.92960 | 151.17308 | 22 ft | 9 kts | 280° |
| 2026-05-06 07:57 | -33.92984 | 151.17189 | 25 ft | 13 kts | 230° |
| 2026-05-06 07:57 | -33.93053 | 151.17183 | 25 ft | 9 kts | 162° |
| 2026-05-06 07:57 | -33.93118 | 151.17206 | 25 ft | 9 kts | 166° |
| 2026-05-06 07:57 | -33.93183 | 151.17224 | 24 ft | 9 kts | 168° |
| 2026-05-06 07:58 | -33.93420 | 151.17287 | 19 ft | 87 kts | 167° |
| 2026-05-06 07:58 | -33.94270 | 151.17506 | 20 ft | 150 kts | 167° |
| 2026-05-06 07:58 | -33.95401 | 151.17801 | 240 ft | 175 kts | 165° |
| 2026-05-06 07:58 | -33.96540 | 151.18039 | 1098 ft | 160 kts | 174° |
| 2026-05-06 07:59 | -33.97634 | 151.17964 | 1863 ft | 182 kts | 185° |
| 2026-05-06 07:59 | -33.99192 | 151.17758 | 2062 ft | 267 kts | 184° |
| 2026-05-06 07:59 | -34.01140 | 151.17584 | 2436 ft | 272 kts | 182° |
| 2026-05-06 07:59 | -34.03021 | 151.17546 | 2878 ft | 274 kts | 174° |
| 2026-05-06 08:00 | -34.04877 | 151.17984 | 3323 ft | 272 kts | 163° |
| 2026-05-06 08:00 | -34.06686 | 151.18680 | 3771 ft | 275 kts | 161° |
| 2026-05-06 08:00 | -34.08524 | 151.19406 | 4210 ft | 278 kts | 162° |
| 2026-05-06 08:00 | -34.10418 | 151.20093 | 4310 ft | 293 kts | 164° |
| 2026-05-06 08:01 | -34.12445 | 151.20779 | 4372 ft | 308 kts | 165° |
| 2026-05-06 08:01 | -34.14592 | 151.21407 | 4411 ft | 322 kts | 173° |
| 2026-05-06 08:01 | -34.16845 | 151.21223 | 4459 ft | 332 kts | 198° |
| 2026-05-06 08:01 | -34.18872 | 151.19885 | 4513 ft | 339 kts | 221° |
| 2026-05-06 08:02 | -34.20594 | 151.17885 | 4566 ft | 348 kts | 229° |
| 2026-05-06 08:02 | -34.22280 | 151.15714 | 4843 ft | 364 kts | 229° |
| 2026-05-06 08:02 | -34.24084 | 151.13512 | 5508 ft | 365 kts | 226° |
| 2026-05-06 08:02 | -34.25909 | 151.11427 | 6290 ft | 367 kts | 225° |
| 2026-05-06 08:03 | -34.27816 | 151.09340 | 7084 ft | 371 kts | 224° |
| 2026-05-06 08:03 | -34.29766 | 151.07243 | 7870 ft | 376 kts | 224° |
| 2026-05-06 08:03 | -34.31719 | 151.05154 | 8654 ft | 380 kts | 224° |
| 2026-05-06 08:03 | -34.33702 | 151.03032 | 9435 ft | 385 kts | 224° |
| 2026-05-06 08:04 | -34.35720 | 151.00864 | 10219 ft | 390 kts | 224° |
| 2026-05-06 08:04 | -34.37773 | 150.98651 | 11290 ft | 401 kts | 224° |
| 2026-05-06 08:04 | -34.39845 | 150.96413 | 12745 ft | 406 kts | 224° |
| 2026-05-06 08:04 | -34.41944 | 150.94142 | 14151 ft | 411 kts | 224° |
| 2026-05-06 08:05 | -34.44068 | 150.91841 | 15531 ft | 416 kts | 224° |
| 2026-05-06 08:05 | -34.46204 | 150.89526 | 16813 ft | 421 kts | 225° |
| 2026-05-06 08:05 | -34.48413 | 150.87129 | 17830 ft | 432 kts | 225° |
| 2026-05-06 08:05 | -34.50665 | 150.84680 | 18032 ft | 437 kts | 225° |
| 2026-05-06 08:06 | -34.52902 | 150.82256 | 18030 ft | 426 kts | 225° |
| 2026-05-06 08:06 | -34.55041 | 150.79831 | 18027 ft | 424 kts | 227° |
| 2026-05-06 08:06 | -34.57055 | 150.77200 | 18027 ft | 423 kts | 232° |
| 2026-05-06 08:06 | -34.58882 | 150.74434 | 18029 ft | 421 kts | 236° |
| 2026-05-06 08:07 | -34.60620 | 150.71547 | 18032 ft | 421 kts | 237° |
| 2026-05-06 08:07 | -34.62288 | 150.68665 | 18035 ft | 421 kts | 238° |
| 2026-05-06 08:07 | -34.63975 | 150.65738 | 18033 ft | 421 kts | 237° |
| 2026-05-06 08:07 | -34.65666 | 150.62836 | 18039 ft | 421 kts | 237° |
| 2026-05-06 08:08 | -34.67370 | 150.59946 | 18033 ft | 421 kts | 237° |
| 2026-05-06 08:08 | -34.69065 | 150.57100 | 18036 ft | 421 kts | 237° |
| 2026-05-06 08:08 | -34.70810 | 150.54184 | 18037 ft | 421 kts | 237° |
| 2026-05-06 08:08 | -34.72522 | 150.51332 | 18035 ft | 421 kts | 236° |
| 2026-05-06 08:09 | -34.74249 | 150.48457 | 18036 ft | 421 kts | 237° |
| 2026-05-06 08:09 | -34.75989 | 150.45558 | 18034 ft | 421 kts | 237° |
| 2026-05-06 08:09 | -34.77694 | 150.42712 | 18037 ft | 420 kts | 237° |
| 2026-05-06 08:09 | -34.79422 | 150.39824 | 18034 ft | 421 kts | 237° |
| 2026-05-06 08:10 | -34.81146 | 150.36940 | 18035 ft | 421 kts | 237° |
| 2026-05-06 08:10 | -34.82869 | 150.34053 | 18042 ft | 421 kts | 237° |
| 2026-05-06 08:10 | -34.84583 | 150.31175 | 18041 ft | 420 kts | 237° |
| 2026-05-06 08:10 | -34.86286 | 150.28288 | 18044 ft | 421 kts | 238° |
| 2026-05-06 08:11 | -34.87987 | 150.25404 | 18037 ft | 418 kts | 237° |
| 2026-05-06 08:11 | -34.89667 | 150.22589 | 17665 ft | 414 kts | 237° |
| 2026-05-06 08:11 | -34.91383 | 150.19719 | 16931 ft | 421 kts | 237° |
| 2026-05-06 08:11 | -34.93099 | 150.16849 | 16187 ft | 418 kts | 237° |
| 2026-05-06 08:12 | -34.94783 | 150.14033 | 15162 ft | 408 kts | 237° |
| 2026-05-06 08:12 | -34.96409 | 150.11311 | 13976 ft | 398 kts | 237° |
| 2026-05-06 08:12 | -34.97977 | 150.08679 | 13427 ft | 373 kts | 237° |
| 2026-05-06 08:12 | -34.99444 | 150.06216 | 13003 ft | 349 kts | 237° |
| 2026-05-06 08:13 | -35.00835 | 150.03871 | 12688 ft | 326 kts | 237° |
| 2026-05-06 08:13 | -35.02114 | 150.01708 | 12327 ft | 312 kts | 238° |
| 2026-05-06 08:13 | -35.03359 | 149.99588 | 11885 ft | 307 kts | 238° |
| 2026-05-06 08:13 | -35.04593 | 149.97481 | 11439 ft | 302 kts | 238° |
| 2026-05-06 08:14 | -35.05844 | 149.95442 | 10995 ft | 299 kts | 234° |
| 2026-05-06 08:14 | -35.07217 | 149.93538 | 10554 ft | 296 kts | 230° |
| 2026-05-06 08:14 | -35.08638 | 149.91760 | 10122 ft | 294 kts | 229° |
| 2026-05-06 08:14 | -35.10071 | 149.90001 | 9680 ft | 290 kts | 229° |
| 2026-05-06 08:15 | -35.11463 | 149.88260 | 9240 ft | 288 kts | 230° |
| 2026-05-06 08:15 | -35.12833 | 149.86511 | 9043 ft | 276 kts | 230° |
| 2026-05-06 08:15 | -35.14122 | 149.84850 | 9036 ft | 262 kts | 230° |
| 2026-05-06 08:15 | -35.15352 | 149.83258 | 9042 ft | 259 kts | 231° |
| 2026-05-06 08:16 | -35.16589 | 149.81650 | 9041 ft | 259 kts | 230° |
| 2026-05-06 08:16 | -35.17820 | 149.80051 | 9044 ft | 259 kts | 230° |
| 2026-05-06 08:16 | -35.19057 | 149.78450 | 9061 ft | 258 kts | 230° |
| 2026-05-06 08:16 | -35.20304 | 149.76836 | 8960 ft | 261 kts | 230° |
| 2026-05-06 08:17 | -35.21562 | 149.75206 | 8558 ft | 265 kts | 230° |
| 2026-05-06 08:17 | -35.22854 | 149.73528 | 7785 ft | 281 kts | 230° |
| 2026-05-06 08:17 | -35.24229 | 149.71739 | 6863 ft | 300 kts | 230° |
| 2026-05-06 08:17 | -35.25664 | 149.69876 | 5973 ft | 305 kts | 229° |
| 2026-05-06 08:18 | -35.27095 | 149.68031 | 5469 ft | 292 kts | 229° |
| 2026-05-06 08:18 | -35.28437 | 149.66306 | 5383 ft | 267 kts | 230° |
| 2026-05-06 08:18 | -35.29697 | 149.64674 | 5816 ft | 274 kts | 230° |
| 2026-05-06 08:18 | -35.31018 | 149.62946 | 5938 ft | 275 kts | 230° |
| 2026-05-06 08:19 | -35.32293 | 149.61289 | 5934 ft | 260 kts | 230° |
| 2026-05-06 08:19 | -35.33499 | 149.59726 | 5941 ft | 245 kts | 230° |
| 2026-05-06 08:19 | -35.34656 | 149.58221 | 5946 ft | 240 kts | 230° |
| 2026-05-06 08:19 | -35.35823 | 149.56688 | 5948 ft | 258 kts | 230° |
| 2026-05-06 08:20 | -35.37061 | 149.55067 | 5947 ft | 258 kts | 230° |
| 2026-05-06 08:20 | -35.38300 | 149.53456 | 5946 ft | 259 kts | 230° |
| 2026-05-06 08:20 | -35.39555 | 149.51825 | 5944 ft | 265 kts | 230° |
| 2026-05-06 08:20 | -35.40802 | 149.50203 | 5947 ft | 264 kts | 230° |
| 2026-05-06 08:21 | -35.42071 | 149.48547 | 5946 ft | 265 kts | 230° |
| 2026-05-06 08:21 | -35.43324 | 149.46912 | 5943 ft | 264 kts | 230° |
| 2026-05-06 08:21 | -35.44591 | 149.45256 | 5943 ft | 264 kts | 230° |
| 2026-05-06 08:21 | -35.45857 | 149.43600 | 5939 ft | 265 kts | 230° |
| 2026-05-06 08:22 | -35.47131 | 149.41933 | 5936 ft | 269 kts | 230° |
| 2026-05-06 08:22 | -35.48408 | 149.40262 | 5937 ft | 269 kts | 230° |
| 2026-05-06 08:22 | -35.49697 | 149.38576 | 5934 ft | 270 kts | 230° |
| 2026-05-06 08:22 | -35.50972 | 149.36908 | 5934 ft | 270 kts | 230° |
| 2026-05-06 08:23 | -35.52270 | 149.35210 | 5935 ft | 270 kts | 230° |
| 2026-05-06 08:23 | -35.53548 | 149.33536 | 5931 ft | 265 kts | 230° |
| 2026-05-06 08:23 | -35.54748 | 149.31923 | 5881 ft | 252 kts | 234° |
| 2026-05-06 08:23 | -35.55560 | 149.30110 | 5796 ft | 236 kts | 258° |
| 2026-05-06 08:24 | -35.55772 | 149.28160 | 5716 ft | 224 kts | 269° |
| 2026-05-06 08:24 | -35.55856 | 149.26274 | 5629 ft | 216 kts | 268° |
| 2026-05-06 08:24 | -35.56014 | 149.24475 | 5514 ft | 210 kts | 265° |
| 2026-05-06 08:24 | -35.56182 | 149.22717 | 5388 ft | 203 kts | 272° |
| 2026-05-06 08:25 | -35.55850 | 149.21086 | 5104 ft | 202 kts | 305° |
| 2026-05-06 08:25 | -35.54760 | 149.20068 | 4959 ft | 197 kts | 338° |
| 2026-05-06 08:25 | -35.53431 | 149.19606 | 4944 ft | 195 kts | 341° |
| 2026-05-06 08:25 | -35.52107 | 149.19307 | 4936 ft | 196 kts | 354° |
| 2026-05-06 08:26 | -35.50725 | 149.19368 | 4697 ft | 198 kts | 1° |
| 2026-05-06 08:26 | -35.49395 | 149.19469 | 4824 ft | 195 kts | 358° |
| 2026-05-06 08:26 | -35.47982 | 149.19479 | 4822 ft | 204 kts | 357° |
| 2026-05-06 08:26 | -35.46609 | 149.19469 | 4758 ft | 194 kts | 355° |
| 2026-05-06 08:27 | -35.45248 | 149.19398 | 4660 ft | 193 kts | 354° |
| 2026-05-06 08:27 | -35.43901 | 149.19360 | 4369 ft | 189 kts | 356° |
| 2026-05-06 08:27 | -35.42609 | 149.19373 | 4099 ft | 183 kts | 358° |
| 2026-05-06 08:27 | -35.41366 | 149.19398 | 3953 ft | 171 kts | 358° |
| 2026-05-06 08:28 | -35.40270 | 149.19421 | 3967 ft | 143 kts | 356° |
| 2026-05-06 08:28 | -35.39375 | 149.19458 | 4081 ft | 118 kts | 359° |
| 2026-05-06 08:28 | -35.38464 | 149.19522 | 4177 ft | 128 kts | 357° |
| 2026-05-06 08:28 | -35.37583 | 149.19531 | 4147 ft | 127 kts | 355° |
| 2026-05-06 08:29 | -35.36694 | 149.19518 | 4062 ft | 128 kts | 353° |
| 2026-05-06 08:29 | -35.35774 | 149.19481 | 3740 ft | 135 kts | 355° |
| 2026-05-06 08:29 | -35.34865 | 149.19478 | 3322 ft | 132 kts | 354° |
| 2026-05-06 08:29 | -35.33946 | 149.19487 | 2797 ft | 133 kts | 355° |
| 2026-05-06 08:30 | -35.33038 | 149.19461 | 2365 ft | 127 kts | 355° |
| 2026-05-06 08:30 | -35.32190 | 149.19438 | 2053 ft | 116 kts | 355° |
| 2026-05-06 08:30 | -35.31429 | 149.19438 | 1877 ft | 102 kts | 358° |
| 2026-05-06 08:30 | -35.30769 | 149.19453 | 1880 ft | 83 kts | 358° |
| 2026-05-06 08:31 | -35.30321 | 149.19450 | 1879 ft | 32 kts | 0° |
| 2026-05-06 08:31 | -35.30183 | 149.19392 | 1879 ft | 14 kts | 292° |
| 2026-05-06 08:31 | -35.30165 | 149.19272 | 1876 ft | 13 kts | 234° |
| 2026-05-06 08:31 | -35.30269 | 149.19237 | 1875 ft | 16 kts | 184° |
| 2026-05-06 08:32 | -35.30389 | 149.19238 | 1875 ft | 18 kts | 179° |
| 2026-05-06 08:32 | -35.30510 | 149.19241 | 1875 ft | 16 kts | 178° |
| 2026-05-06 08:32 | -35.30611 | 149.19237 | 1875 ft | 11 kts | 195° |
| 2026-05-06 08:32 | -35.30666 | 149.19212 | 1875 ft | 7 kts | 210° |
| 2026-05-06 08:33 | -35.30700 | 149.19163 | 1874 ft | 7 kts | 243° |
| 2026-05-06 08:33 | -35.30710 | 149.19135 | 1873 ft | 5 kts | 247° |
| 2026-05-06 08:33 | -35.30714 | 149.19125 | 1873 ft | 0 kts | 246° |